Search for airport 
image banner adimage banner adimage banner ad
image banner ad

EDOW - Waren/Vielist

Located in Vielist, Germany

ICAO - EDOW, IATA -

Data provided by Airmate  

General information

Coordinates: N53°34'7" E12°39'10"
Elevation is 282 feet MSL.
Magnetic variation is 4.0000° East
View others Airports in Mecklenburg-Vorpommern

Operational data

Special qualification required
Current time UTC:
Current local time:
Weather at : ETNL - Laage ( 46 km )
METAR: ETNL 060020Z 25015G26KT 9999 BKN024 05/01 Q1000 WHT
TAF: TAF ETNL 051605Z 0517/0605 24015G30KT 9999 NSW BKN025 TEMPO 0517/0605 26025G40KT 4000 SHRA BKN010CB BY ETGL
View NOTAMs / SUP AIP / TFR affecting this airport [VIEW]
Communications frequencies: [VIEW]

Runways:

RWY identifierQFULength (ft)Width (ft)SurfaceLDA (ft)
0443°2625131GRASS2625
22223°2625131GRASS1969

Airport contact information

Address: Vielist Germany

Satellite view of EDOW